Time;durP1;ratioP1;P1;durP2;ratioP2;P2;SDS_P1;SDS_P2;PMS_P1;PMS_P2;Temp;Humidity;BMP_temperature;BMP_pressure;BME280_temperature;BME280_humidity;BME280_pressure;Samples;Min_cycle;Max_cycle;Signal;HPM_P1;HPM_P2
2023/12/01 00:00:08;;;;;;;80.60;31.53;;;1.20;99.90;;;;;;4934647;29;20473;-91
2023/12/01 00:02:34;;;;;;;75.40;30.80;;;1.20;99.90;;;;;;4933226;29;20462;-91
2023/12/01 00:04:59;;;;;;;76.63;30.85;;;1.30;99.90;;;;;;4934693;29;20448;-92
2023/12/01 00:07:25;;;;;;;72.68;30.60;;;1.20;99.90;;;;;;4933437;29;20441;-91
2023/12/01 00:09:52;;;;;;;71.10;29.30;;;1.20;99.90;;;;;;4957815;28;20412;-92
2023/12/01 00:12:18;;;;;;;62.67;27.27;;;1.30;99.90;;;;;;4953626;28;20978;-91
2023/12/01 00:14:43;;;;;;;56.08;25.88;;;1.30;99.90;;;;;;4962528;28;20417;-92
2023/12/01 00:17:09;;;;;;;55.63;25.30;;;1.30;99.90;;;;;;4949805;29;20465;-93
2023/12/01 00:19:35;;;;;;;47.78;23.17;;;1.20;99.90;;;;;;4932923;29;20433;-91
2023/12/01 00:22:00;;;;;;;44.95;22.30;;;1.20;99.90;;;;;;4934117;29;20418;-91
2023/12/01 00:24:26;;;;;;;41.10;21.53;;;1.20;99.90;;;;;;4933243;29;20723;-92
2023/12/01 00:26:51;;;;;;;40.37;21.00;;;1.00;99.90;;;;;;4934293;29;20417;-92
2023/12/01 00:29:17;;;;;;;40.53;20.58;;;1.20;99.90;;;;;;4935134;28;20410;-91
2023/12/01 00:31:43;;;;;;;42.42;21.08;;;1.10;99.90;;;;;;4952677;28;20988;-91
2023/12/01 00:34:08;;;;;;;39.53;20.25;;;1.10;99.90;;;;;;4953106;28;20420;-90
2023/12/01 00:36:34;;;;;;;42.50;21.00;;;1.10;99.90;;;;;;4952423;28;20427;-92
2023/12/01 00:39:00;;;;;;;43.60;21.27;;;1.10;99.90;;;;;;4953187;28;20416;-91
2023/12/01 00:41:25;;;;;;;49.63;22.20;;;0.90;99.90;;;;;;4951894;28;20404;-90
2023/12/01 00:43:51;;;;;;;45.67;21.73;;;1.10;99.90;;;;;;4949092;29;20496;-94
2023/12/01 00:46:17;;;;;;;45.25;22.17;;;1.00;99.90;;;;;;4932112;29;20416;-93
2023/12/01 00:48:43;;;;;;;43.60;21.58;;;1.00;99.90;;;;;;4932994;29;20406;-92
2023/12/01 00:51:19;;;;;;;46.38;22.15;;;1.30;99.90;;;;;;4933140;29;20433;-91
2023/12/01 00:53:45;;;;;;;50.37;23.40;;;1.00;99.90;;;;;;4932607;29;20984;-90
2023/12/01 00:56:11;;;;;;;57.30;25.70;;;1.00;99.90;;;;;;4949006;28;20479;-92
2023/12/01 00:58:37;;;;;;;55.72;25.48;;;1.00;99.90;;;;;;4951559;28;20408;-90
2023/12/01 01:01:05;;;;;;;53.00;25.23;;;1.00;99.90;;;;;;4952979;28;20895;-91
2023/12/01 01:03:31;;;;;;;49.87;24.77;;;0.90;99.90;;;;;;4951782;28;20472;-90
2023/12/01 01:05:57;;;;;;;49.08;23.77;;;1.00;99.90;;;;;;4952589;28;20451;-91
2023/12/01 01:08:22;;;;;;;47.30;23.97;;;0.90;99.90;;;;;;4952367;28;20474;-91
2023/12/01 01:10:48;;;;;;;48.40;23.47;;;0.90;99.90;;;;;;4952110;28;20733;-92
2023/12/01 01:13:14;;;;;;;48.27;23.90;;;1.30;99.90;;;;;;4952751;28;20463;-92
2023/12/01 01:15:40;;;;;;;49.43;24.20;;;0.90;99.90;;;;;;4950934;28;20919;-92
2023/12/01 01:18:08;;;;;;;46.37;23.40;;;0.80;99.90;;;;;;4952098;28;20427;-90
2023/12/01 01:20:34;;;;;;;46.45;23.17;;;0.80;99.90;;;;;;4941457;29;20414;-91
2023/12/01 01:23:00;;;;;;;42.25;23.77;;;0.80;99.90;;;;;;4948933;29;20801;-91
2023/12/01 01:25:25;;;;;;;43.65;22.73;;;0.60;99.90;;;;;;4956220;28;20412;-91
2023/12/01 01:27:51;;;;;;;42.93;23.03;;;0.80;99.90;;;;;;4951699;28;20941;-91
2023/12/01 01:30:17;;;;;;;45.07;23.53;;;0.70;99.90;;;;;;4945659;29;20433;-90
2023/12/01 01:32:42;;;;;;;41.38;22.73;;;0.90;99.90;;;;;;4932294;29;20921;-91
2023/12/01 01:35:08;;;;;;;42.17;23.80;;;0.80;99.90;;;;;;4933258;29;20402;-90
2023/12/01 01:37:34;;;;;;;44.05;24.17;;;0.70;99.90;;;;;;4932005;29;20878;-91
2023/12/01 01:40:00;;;;;;;47.72;24.23;;;0.60;99.90;;;;;;4933376;29;20500;-92
2023/12/01 01:42:25;;;;;;;45.07;23.97;;;0.60;99.90;;;;;;4932250;29;20441;-91
2023/12/01 01:44:51;;;;;;;44.03;23.53;;;0.60;99.90;;;;;;4934754;28;20496;-89
2023/12/01 01:47:17;;;;;;;39.93;21.63;;;0.60;99.90;;;;;;4951214;28;20408;-91
2023/12/01 01:49:42;;;;;;;41.42;23.50;;;0.60;99.90;;;;;;4951519;28;20556;-91
2023/12/01 01:52:10;;;;;;;41.35;22.83;;;0.60;99.90;;;;;;4952044;28;20440;-92
2023/12/01 01:54:37;;;;;;;38.97;23.03;;;0.60;99.90;;;;;;4966723;28;20394;-91
2023/12/01 01:57:03;;;;;;;40.10;22.45;;;0.60;99.90;;;;;;4951735;28;20419;-93
2023/12/01 01:59:29;;;;;;;40.17;22.65;;;0.60;99.90;;;;;;4954530;28;20423;-91
2023/12/01 02:01:55;;;;;;;41.20;22.52;;;0.60;99.90;;;;;;4955792;28;20770;-91
2023/12/01 02:04:21;;;;;;;39.75;22.98;;;0.40;99.90;;;;;;4955282;28;20484;-91
2023/12/01 02:06:46;;;;;;;41.70;23.20;;;0.50;99.90;;;;;;4955184;28;20518;-91
2023/12/01 02:09:16;;;;;;;37.15;21.65;;;0.50;99.90;;;;;;4955821;28;20911;-91
2023/12/01 02:11:42;;;;;;;39.17;22.47;;;0.60;99.90;;;;;;4954213;28;20479;-92
2023/12/01 02:14:08;;;;;;;42.63;23.80;;;0.50;99.90;;;;;;4956235;28;20998;-91
2023/12/01 02:16:34;;;;;;;41.80;23.00;;;0.80;99.90;;;;;;4954350;28;20499;-90
2023/12/01 02:18:59;;;;;;;41.33;23.92;;;0.50;99.90;;;;;;4955370;28;21179;-92
2023/12/01 02:21:26;;;;;;;42.92;24.13;;;0.50;99.90;;;;;;4954322;28;20455;-91
2023/12/01 02:23:55;;;;;;;38.63;23.33;;;0.70;99.90;;;;;;4955153;28;20427;-91
2023/12/01 02:26:25;;;;;;;41.08;23.17;;;0.40;99.90;;;;;;4943034;29;20421;-91
2023/12/01 02:28:51;;;;;;;42.72;24.58;;;0.40;99.90;;;;;;4935261;29;20755;-90
2023/12/01 02:31:16;;;;;;;40.47;23.38;;;0.30;99.90;;;;;;4952429;29;20410;-91
2023/12/01 02:33:42;;;;;;;42.67;23.93;;;0.50;99.90;;;;;;4950831;29;20414;-91
2023/12/01 02:36:11;;;;;;;43.07;24.50;;;0.30;99.90;;;;;;4946151;28;20404;-91
2023/12/01 02:38:36;;;;;;;45.55;24.58;;;0.30;99.90;;;;;;4954205;28;20405;-90
2023/12/01 02:41:02;;;;;;;44.13;23.97;;;0.40;99.90;;;;;;4970927;28;20442;-91
2023/12/01 02:43:28;;;;;;;43.33;24.23;;;0.30;99.90;;;;;;4954886;28;20510;-91
2023/12/01 02:45:54;;;;;;;42.70;24.48;;;0.30;99.90;;;;;;4954436;28;20428;-91
2023/12/01 02:48:20;;;;;;;40.40;23.40;;;0.40;99.90;;;;;;4971378;28;20800;-90
2023/12/01 02:50:45;;;;;;;42.97;24.53;;;0.30;99.90;;;;;;4953676;28;20416;-92
2023/12/01 02:53:11;;;;;;;45.63;24.93;;;0.30;99.90;;;;;;4955181;28;20409;-90
2023/12/01 02:55:37;;;;;;;39.60;23.60;;;0.20;99.90;;;;;;4953873;28;20947;-90
2023/12/01 02:58:03;;;;;;;40.58;23.48;;;0.20;99.90;;;;;;4954747;28;20895;-91
2023/12/01 03:00:29;;;;;;;39.33;23.98;;;0.20;99.90;;;;;;4967039;28;20466;-90
2023/12/01 03:02:54;;;;;;;40.45;24.63;;;0.10;99.90;;;;;;4935323;29;20801;-91
2023/12/01 03:05:21;;;;;;;38.65;23.70;;;0.40;99.90;;;;;;4935112;29;20411;-90
2023/12/01 03:07:48;;;;;;;36.88;23.02;;;0.10;99.90;;;;;;4934395;29;20410;-91
2023/12/01 03:10:14;;;;;;;38.97;23.65;;;0.30;99.90;;;;;;4934517;29;20398;-90
2023/12/01 03:12:41;;;;;;;38.65;23.63;;;0.10;99.90;;;;;;4950373;29;20414;-90
2023/12/01 03:15:12;;;;;;;41.28;23.73;;;0.10;99.90;;;;;;4951482;29;20402;-90
2023/12/01 03:17:38;;;;;;;41.45;23.55;;;0.30;99.90;;;;;;4930505;29;20406;-90
2023/12/01 03:20:09;;;;;;;42.80;24.15;;;0.40;99.90;;;;;;4950724;29;20410;-92
2023/12/01 03:22:36;;;;;;;39.63;23.95;;;0.00;99.90;;;;;;4935207;29;20491;-89
2023/12/01 03:25:02;;;;;;;39.35;23.98;;;-0.10;99.90;;;;;;4934104;29;20518;-90
2023/12/01 03:27:28;;;;;;;40.37;23.83;;;-0.10;99.90;;;;;;4935464;29;20414;-90
2023/12/01 03:29:53;;;;;;;38.87;23.80;;;-0.20;99.90;;;;;;4949862;29;20425;-90
2023/12/01 03:32:19;;;;;;;42.00;24.30;;;-0.20;99.90;;;;;;4935112;29;20753;-91
2023/12/01 03:34:45;;;;;;;43.90;24.30;;;-0.20;99.90;;;;;;4934371;29;20921;-91
2023/12/01 03:37:10;;;;;;;44.30;25.50;;;-0.30;99.90;;;;;;4934686;29;20441;-90
2023/12/01 03:39:36;;;;;;;46.83;26.00;;;-0.40;99.90;;;;;;4934073;29;20455;-91
2023/12/01 03:42:02;;;;;;;43.83;24.83;;;-0.40;99.90;;;;;;4933813;29;20417;-91
2023/12/01 03:44:28;;;;;;;43.95;24.52;;;-0.50;99.90;;;;;;4934744;29;20444;-91
2023/12/01 03:46:55;;;;;;;45.35;25.58;;;-0.50;99.90;;;;;;4933891;29;20476;-90
2023/12/01 03:49:20;;;;;;;45.95;25.95;;;-0.60;99.90;;;;;;4934691;29;20413;-90
2023/12/01 03:51:46;;;;;;;53.97;26.20;;;-0.50;99.90;;;;;;4933685;29;20406;-89
2023/12/01 03:54:12;;;;;;;50.65;25.08;;;-0.60;99.90;;;;;;4950768;29;20453;-89
2023/12/01 03:56:38;;;;;;;47.95;26.13;;;-0.50;99.90;;;;;;4950061;29;20426;-89
2023/12/01 03:59:09;;;;;;;60.63;26.67;;;-0.80;99.90;;;;;;4933890;29;20790;-89
2023/12/01 04:01:36;;;;;;;57.42;26.85;;;-0.80;99.90;;;;;;4943061;28;20423;-92
2023/12/01 04:04:02;;;;;;;52.63;26.42;;;-0.90;99.90;;;;;;4952567;28;20443;-90
2023/12/01 04:06:27;;;;;;;50.47;24.60;;;-0.90;99.90;;;;;;4953761;28;20412;-90
2023/12/01 04:08:53;;;;;;;61.57;26.87;;;-0.90;99.90;;;;;;4951983;28;20401;-91
2023/12/01 04:11:19;;;;;;;47.42;24.00;;;-1.00;99.90;;;;;;4953660;28;20423;-90
2023/12/01 04:13:45;;;;;;;49.40;24.05;;;-1.10;99.90;;;;;;4952539;28;20903;-90
2023/12/01 04:16:10;;;;;;;54.40;25.73;;;-1.20;99.90;;;;;;4952960;28;20507;-90
2023/12/01 04:18:36;;;;;;;55.67;26.53;;;-1.20;99.90;;;;;;4953586;28;20412;-90
2023/12/01 04:21:08;;;;;;;52.13;25.43;;;-1.20;99.90;;;;;;4951586;28;20421;-90
2023/12/01 04:23:34;;;;;;;53.08;24.98;;;-1.30;99.90;;;;;;4953399;28;20440;-91
2023/12/01 04:26:00;;;;;;;65.40;26.48;;;-1.20;99.90;;;;;;4949217;28;20500;-90
2023/12/01 04:28:26;;;;;;;53.47;25.38;;;-1.20;99.90;;;;;;4934107;29;20429;-90
2023/12/01 04:30:52;;;;;;;57.15;26.35;;;-1.40;99.90;;;;;;4933451;29;20414;-90
2023/12/01 04:33:18;;;;;;;56.35;25.45;;;-1.40;99.90;;;;;;4950199;29;20426;-90
2023/12/01 04:35:43;;;;;;;49.10;24.75;;;-1.40;99.90;;;;;;4933262;29;20548;-89
2023/12/01 04:38:09;;;;;;;52.75;24.90;;;-1.50;99.90;;;;;;4933126;29;20788;-89
2023/12/01 04:40:38;;;;;;;52.80;24.73;;;-1.60;99.90;;;;;;4934103;29;20421;-90
2023/12/01 04:43:04;;;;;;;68.10;26.35;;;-1.70;99.90;;;;;;4932359;29;20449;-90
2023/12/01 04:45:35;;;;;;;53.13;24.48;;;-1.70;99.90;;;;;;4934118;29;20414;-90
2023/12/01 04:48:01;;;;;;;70.22;28.15;;;-1.80;99.90;;;;;;4932927;29;20414;-89
2023/12/01 04:50:29;;;;;;;66.32;27.25;;;-1.80;99.90;;;;;;4933270;29;20420;-90
2023/12/01 04:52:56;;;;;;;52.28;25.38;;;-1.80;99.90;;;;;;4949191;29;20410;-90
2023/12/01 04:55:31;;;;;;;60.75;26.23;;;-1.80;99.90;;;;;;4932876;29;20457;-90
2023/12/01 04:57:58;;;;;;;66.67;27.57;;;-1.90;99.90;;;;;;4950424;28;20794;-90
2023/12/01 05:00:25;;;;;;;70.43;27.77;;;-1.90;99.90;;;;;;4951394;28;20408;-90
2023/12/01 05:02:59;;;;;;;63.03;27.08;;;-1.90;99.90;;;;;;4968968;28;20471;-90
2023/12/01 05:05:27;;;;;;;61.05;26.08;;;-2.00;99.90;;;;;;4951815;28;20431;-90
2023/12/01 05:07:57;;;;;;;70.27;26.93;;;-2.00;99.90;;;;;;4951951;28;20498;-90
2023/12/01 05:10:24;;;;;;;65.93;26.73;;;-2.00;99.90;;;;;;4952297;28;20408;-90
2023/12/01 05:12:58;;;;;;;65.68;27.45;;;-2.00;99.90;;;;;;4936521;29;20458;-89
2023/12/01 05:15:25;;;;;;;71.43;27.27;;;-2.10;99.90;;;;;;4933325;29;20425;-91
2023/12/01 05:17:53;;;;;;;71.33;27.93;;;-2.10;99.90;;;;;;4931712;29;20464;-90
2023/12/01 05:20:20;;;;;;;77.78;28.63;;;-2.10;99.90;;;;;;4933993;29;20413;-90
2023/12/01 05:22:49;;;;;;;72.43;26.80;;;-2.20;99.90;;;;;;4932311;29;20441;-91
2023/12/01 05:25:16;;;;;;;75.78;28.85;;;-2.20;99.90;;;;;;4933151;29;20421;-90
2023/12/01 05:27:49;;;;;;;62.63;27.35;;;-2.20;99.90;;;;;;4945349;28;20938;-90
2023/12/01 05:30:19;;;;;;;68.47;27.85;;;-2.30;99.90;;;;;;4951326;28;20416;-90
2023/12/01 05:32:48;;;;;;;69.43;27.83;;;-2.30;99.90;;;;;;4952084;28;20408;-90
2023/12/01 05:35:15;;;;;;;61.93;26.33;;;-2.30;99.90;;;;;;4950821;28;20415;-90
2023/12/01 05:37:49;;;;;;;68.03;27.73;;;-2.20;99.90;;;;;;4952200;28;20423;-91
2023/12/01 05:40:17;;;;;;;63.40;27.17;;;-2.40;99.90;;;;;;4968156;28;20736;-90
2023/12/01 05:42:44;;;;;;;65.78;26.88;;;-2.20;99.90;;;;;;4951361;28;20438;-91
2023/12/01 05:45:11;;;;;;;69.05;28.23;;;-2.40;99.90;;;;;;4946503;29;20773;-91
2023/12/01 05:47:42;;;;;;;72.65;28.27;;;-2.30;99.90;;;;;;4931299;29;20406;-90
2023/12/01 05:50:13;;;;;;;66.82;27.48;;;-2.30;99.90;;;;;;4932642;29;20406;-89
2023/12/01 05:52:41;;;;;;;60.88;27.45;;;-2.50;99.90;;;;;;4931978;29;20425;-89
2023/12/01 05:55:14;;;;;;;69.67;29.47;;;-2.50;99.90;;;;;;4932960;29;20461;-90
2023/12/01 05:57:44;;;;;;;73.00;29.45;;;-2.60;99.90;;;;;;4945070;28;20428;-89
2023/12/01 06:00:17;;;;;;;74.05;29.35;;;-2.60;99.90;;;;;;4950771;28;20755;-90
2023/12/01 06:02:51;;;;;;;63.90;27.98;;;-2.70;99.90;;;;;;4948428;29;20437;-90
2023/12/01 06:05:18;;;;;;;60.13;27.13;;;-2.70;99.90;;;;;;4940916;28;20792;-90
2023/12/01 06:07:49;;;;;;;60.08;26.40;;;-2.80;99.90;;;;;;4967932;28;20584;-89
2023/12/01 06:10:16;;;;;;;66.43;27.55;;;-2.40;99.90;;;;;;4950730;28;20408;-90
2023/12/01 06:12:42;;;;;;;62.07;26.70;;;-2.90;99.90;;;;;;4941516;29;20922;-89
2023/12/01 06:15:10;;;;;;;52.40;25.40;;;-2.90;99.90;;;;;;4948514;29;20421;-90
2023/12/01 06:17:37;;;;;;;50.15;24.38;;;-2.90;99.90;;;;;;4931456;29;20417;-91
2023/12/01 06:20:04;;;;;;;56.80;25.23;;;-3.00;99.90;;;;;;4932381;29;20414;-90
2023/12/01 06:22:30;;;;;;;57.65;25.27;;;-3.10;99.90;;;;;;4931568;29;20789;-92
2023/12/01 06:24:56;;;;;;;64.43;27.52;;;-3.20;99.90;;;;;;4933037;29;20416;-88
2023/12/01 06:27:25;;;;;;;66.38;27.42;;;-3.10;99.90;;;;;;4931514;29;20840;-89
2023/12/01 06:29:51;;;;;;;71.40;29.47;;;-3.20;99.90;;;;;;4932620;29;20422;-90
2023/12/01 06:32:17;;;;;;;67.22;28.15;;;-3.10;99.90;;;;;;4931345;29;20505;-89
2023/12/01 06:34:42;;;;;;;78.03;29.75;;;-3.10;99.90;;;;;;4947677;29;20508;-89
2023/12/01 06:37:08;;;;;;;58.83;25.83;;;-3.20;99.90;;;;;;4932594;29;20875;-88
2023/12/01 06:39:34;;;;;;;59.60;27.00;;;-3.20;99.90;;;;;;4931343;29;20947;-91
2023/12/01 06:41:59;;;;;;;62.60;27.30;;;-3.30;99.90;;;;;;4932823;29;20414;-91
2023/12/01 06:44:25;;;;;;;72.32;27.85;;;-3.40;99.90;;;;;;4931352;29;20466;-91
2023/12/01 06:46:51;;;;;;;71.68;28.02;;;-3.40;99.90;;;;;;4936350;29;20421;-90
2023/12/01 06:49:16;;;;;;;68.30;27.40;;;-3.20;99.90;;;;;;4935000;29;20417;-91
2023/12/01 06:51:43;;;;;;;55.80;25.70;;;-3.40;99.90;;;;;;4935271;29;21215;-90
2023/12/01 06:54:09;;;;;;;55.30;24.70;;;-3.50;99.90;;;;;;4935551;29;20446;-90
2023/12/01 06:56:38;;;;;;;69.13;26.37;;;-3.40;99.90;;;;;;4935116;29;20450;-90
2023/12/01 06:59:05;;;;;;;70.18;26.25;;;-3.60;99.90;;;;;;4951372;29;20772;-91
2023/12/01 07:01:31;;;;;;;68.07;27.23;;;-3.60;99.90;;;;;;4935679;28;20501;-90
2023/12/01 07:03:57;;;;;;;76.85;27.70;;;-3.60;99.90;;;;;;4954889;28;20522;-91
2023/12/01 07:06:23;;;;;;;66.13;26.63;;;-3.60;99.90;;;;;;4953567;28;20824;-90
2023/12/01 07:08:49;;;;;;;75.13;26.67;;;-3.60;99.90;;;;;;4954439;28;20775;-91
2023/12/01 07:11:16;;;;;;;79.67;28.80;;;-3.60;99.90;;;;;;4954378;28;20416;-91
2023/12/01 07:13:42;;;;;;;73.18;28.10;;;-3.60;99.90;;;;;;4953605;28;20459;-90
2023/12/01 07:16:11;;;;;;;78.97;28.85;;;-3.60;99.90;;;;;;4954364;28;20444;-93
2023/12/01 07:18:38;;;;;;;67.23;27.30;;;-3.70;99.90;;;;;;4953494;28;20500;-92
2023/12/01 07:21:06;;;;;;;69.85;26.40;;;-3.70;99.90;;;;;;4954407;28;20420;-92
2023/12/01 07:23:36;;;;;;;73.22;26.65;;;-3.80;99.90;;;;;;4969033;28;20486;-90
2023/12/01 07:26:02;;;;;;;71.60;26.67;;;-3.80;99.90;;;;;;4970340;28;20491;-92
2023/12/01 07:28:28;;;;;;;75.30;26.58;;;-3.80;99.90;;;;;;4953809;28;20709;-90
2023/12/01 07:30:54;;;;;;;73.43;26.75;;;-3.80;99.90;;;;;;4953833;28;20408;-91
2023/12/01 07:33:20;;;;;;;73.82;26.63;;;-3.80;99.90;;;;;;4954334;28;20505;-90
2023/12/01 07:35:45;;;;;;;85.25;28.63;;;-3.70;99.90;;;;;;4953039;28;20412;-92
2023/12/01 07:38:11;;;;;;;88.63;28.33;;;-3.50;99.90;;;;;;4954511;28;20455;-92
2023/12/01 07:40:37;;;;;;;71.25;26.30;;;-3.80;99.90;;;;;;4951897;28;20398;-91
2023/12/01 07:43:03;;;;;;;59.83;24.58;;;-3.80;99.90;;;;;;4953545;28;20432;-90
2023/12/01 07:45:29;;;;;;;72.30;26.08;;;-3.80;99.90;;;;;;4952654;28;20431;-89
2023/12/01 07:47:54;;;;;;;63.75;25.75;;;-3.80;99.90;;;;;;4953524;28;20424;-90
2023/12/01 07:50:21;;;;;;;66.82;25.85;;;-3.90;99.90;;;;;;4953208;28;20524;-90
2023/12/01 07:52:49;;;;;;;60.77;25.00;;;-3.90;99.90;;;;;;4953319;28;21066;-90
2023/12/01 07:55:15;;;;;;;67.72;25.77;;;-3.90;99.90;;;;;;4953761;28;20503;-90
2023/12/01 07:57:41;;;;;;;70.85;26.80;;;-3.60;99.90;;;;;;4952626;28;20416;-91
2023/12/01 08:00:14;;;;;;;73.65;28.00;;;-3.90;99.90;;;;;;4953707;28;20823;-91
2023/12/01 08:02:41;;;;;;;73.35;28.08;;;-3.80;99.90;;;;;;4953005;28;20499;-90
2023/12/01 08:05:13;;;;;;;86.00;28.73;;;-3.80;99.90;;;;;;4953347;28;20411;-91
2023/12/01 08:07:40;;;;;;;99.87;31.20;;;-3.80;99.90;;;;;;4952973;28;20451;-90
2023/12/01 08:10:06;;;;;;;74.50;28.42;;;-3.70;99.90;;;;;;4952814;28;20479;-89
2023/12/01 08:12:32;;;;;;;82.68;28.42;;;-3.70;99.90;;;;;;4953574;28;20912;-90
2023/12/01 08:14:58;;;;;;;81.65;30.00;;;-3.60;99.90;;;;;;4952323;28;20439;-89
2023/12/01 08:17:24;;;;;;;91.97;31.63;;;-3.60;99.90;;;;;;4969754;28;20427;-91
2023/12/01 08:19:50;;;;;;;89.47;31.43;;;-3.50;99.90;;;;;;4952122;28;20569;-91
2023/12/01 08:22:17;;;;;;;97.00;33.33;;;-3.30;99.90;;;;;;4952784;28;20415;-90
2023/12/01 08:24:42;;;;;;;109.10;35.65;;;-3.40;99.90;;;;;;4953046;28;20773;-92
2023/12/01 08:27:08;;;;;;;105.13;34.30;;;-3.40;99.90;;;;;;4951809;28;20415;-91
2023/12/01 08:29:33;;;;;;;90.95;32.53;;;-3.30;99.90;;;;;;4969019;28;20420;-91
2023/12/01 08:32:00;;;;;;;97.43;33.65;;;-3.30;99.90;;;;;;4951953;28;20441;-90
2023/12/01 08:34:25;;;;;;;106.55;32.75;;;-3.10;99.90;;;;;;4953047;28;20412;-90
2023/12/01 08:36:51;;;;;;;87.90;32.83;;;-3.10;99.90;;;;;;4968522;28;20933;-89
2023/12/01 08:39:16;;;;;;;86.97;31.45;;;-3.10;99.90;;;;;;4953321;28;20421;-90
2023/12/01 08:41:42;;;;;;;113.77;36.97;;;-2.70;99.90;;;;;;4951709;28;20510;-89
2023/12/01 08:44:08;;;;;;;87.10;33.50;;;-3.00;99.90;;;;;;4952331;28;20450;-91
2023/12/01 08:46:33;;;;;;;91.37;32.83;;;-3.00;99.90;;;;;;4952536;28;20544;-90
2023/12/01 08:48:59;;;;;;;89.10;33.17;;;-2.90;99.90;;;;;;4939270;29;20422;-88
2023/12/01 08:51:25;;;;;;;80.73;31.33;;;-2.80;99.90;;;;;;4949058;29;20770;-90
2023/12/01 08:53:51;;;;;;;84.35;31.77;;;-2.70;99.90;;;;;;4960130;28;20415;-92
2023/12/01 08:56:16;;;;;;;76.97;32.10;;;-2.70;99.90;;;;;;4953322;28;20882;-91
2023/12/01 08:58:42;;;;;;;76.72;32.13;;;-2.60;99.90;;;;;;4951450;28;20468;-91
2023/12/01 09:01:08;;;;;;;76.88;30.17;;;-2.50;99.90;;;;;;4952686;28;20447;-92
2023/12/01 09:03:34;;;;;;;74.57;30.92;;;-2.50;99.90;;;;;;4951585;28;20788;-92
2023/12/01 09:06:03;;;;;;;80.95;31.60;;;-2.20;99.90;;;;;;4951555;28;20474;-91
2023/12/01 09:08:29;;;;;;;71.13;29.92;;;-2.40;99.90;;;;;;4952421;28;20420;-91
2023/12/01 09:10:54;;;;;;;75.23;32.57;;;-2.30;99.90;;;;;;4951171;28;20417;-91
2023/12/01 09:13:20;;;;;;;63.00;28.63;;;-2.10;99.90;;;;;;4952790;28;20436;-90
2023/12/01 09:15:46;;;;;;;63.60;29.77;;;-2.30;99.90;;;;;;4951330;28;20452;-91
2023/12/01 09:18:12;;;;;;;57.17;26.83;;;-2.20;99.90;;;;;;4952639;28;20952;-90
2023/12/01 09:20:38;;;;;;;58.25;27.63;;;-2.20;99.90;;;;;;4951346;28;20446;-92
2023/12/01 09:23:05;;;;;;;70.00;29.67;;;-2.00;99.90;;;;;;4951441;28;20431;-91
2023/12/01 09:25:31;;;;;;;60.63;27.85;;;-2.00;99.90;;;;;;4952024;28;20796;-91
2023/12/01 09:27:57;;;;;;;55.60;27.17;;;-2.00;99.90;;;;;;4948868;28;20412;-91
2023/12/01 09:30:23;;;;;;;49.95;26.50;;;-1.80;99.90;;;;;;4933001;29;20410;-92
2023/12/01 09:32:49;;;;;;;43.40;23.50;;;-1.20;99.90;;;;;;4931396;29;20418;-92
2023/12/01 09:35:15;;;;;;;43.72;23.58;;;-0.50;99.90;;;;;;4949047;29;20417;-92
2023/12/01 09:37:42;;;;;;;39.80;22.80;;;-0.10;99.90;;;;;;4931921;29;20433;-93
2023/12/01 09:40:08;;;;;;;43.38;23.60;;;0.10;99.90;;;;;;4932409;29;20501;-92
2023/12/01 09:42:37;;;;;;;37.03;21.77;;;0.20;99.90;;;;;;4932437;29;20821;-91
2023/12/01 09:45:03;;;;;;;34.97;21.65;;;0.50;99.90;;;;;;4931979;29;21119;-92
2023/12/01 09:47:33;;;;;;;33.63;20.85;;;0.60;99.90;;;;;;4948770;29;20472;-92
2023/12/01 09:50:00;;;;;;;38.90;23.55;;;0.90;99.90;;;;;;4931413;29;20418;-92
2023/12/01 09:52:26;;;;;;;39.70;24.20;;;1.00;99.90;;;;;;4933285;29;20510;-91
2023/12/01 09:54:52;;;;;;;37.30;22.92;;;1.10;99.90;;;;;;4931272;29;20496;-93
2023/12/01 09:57:20;;;;;;;35.28;22.25;;;1.00;99.90;;;;;;4932294;29;20433;-92
2023/12/01 09:59:48;;;;;;;34.53;21.40;;;0.90;99.90;;;;;;4931949;29;20425;-92
2023/12/01 10:02:15;;;;;;;31.83;20.45;;;0.70;99.90;;;;;;4931840;29;20790;-93
2023/12/01 10:04:41;;;;;;;34.15;20.92;;;0.50;99.90;;;;;;4933099;29;20413;-92
2023/12/01 10:07:07;;;;;;;36.50;21.67;;;0.50;99.90;;;;;;4947268;29;20501;-92
2023/12/01 10:09:32;;;;;;;35.17;20.77;;;0.40;99.90;;;;;;4933260;29;20425;-92
2023/12/01 10:12:04;;;;;;;35.00;21.10;;;0.30;99.90;;;;;;4931172;29;20785;-91
2023/12/01 10:14:32;;;;;;;35.22;21.52;;;0.20;99.90;;;;;;4932723;29;20422;-91
2023/12/01 10:17:03;;;;;;;35.63;22.00;;;0.30;99.90;;;;;;4931900;29;20428;-93
2023/12/01 10:19:33;;;;;;;35.22;21.35;;;0.10;99.90;;;;;;4950145;28;20413;-92
2023/12/01 10:22:00;;;;;;;35.58;21.52;;;0.10;99.90;;;;;;4936850;29;20801;-93
2023/12/01 10:24:26;;;;;;;35.33;21.63;;;0.00;99.90;;;;;;4934636;29;20477;-94
2023/12/01 10:26:55;;;;;;;37.90;22.43;;;0.00;99.90;;;;;;4952312;29;20410;-92
2023/12/01 10:29:28;;;;;;;37.28;21.90;;;0.00;99.90;;;;;;4944875;28;20400;-92
2023/12/01 10:32:11;;;;;;;36.08;21.52;;;0.00;99.90;;;;;;4955379;28;20487;-90
2023/12/01 10:34:37;;;;;;;33.75;20.98;;;0.00;99.90;;;;;;4943179;29;20414;-92
2023/12/01 10:37:03;;;;;;;36.30;21.98;;;0.10;99.90;;;;;;4934787;29;20396;-92
2023/12/01 10:39:29;;;;;;;36.33;21.70;;;0.10;99.90;;;;;;4946285;28;20911;-92
2023/12/01 10:41:57;;;;;;;33.35;21.10;;;0.30;99.90;;;;;;4969990;28;20404;-92
2023/12/01 10:44:25;;;;;;;32.83;20.65;;;0.60;99.90;;;;;;4955300;28;20432;-93
2023/12/01 10:46:53;;;;;;;32.55;20.42;;;0.70;99.90;;;;;;4954097;28;20408;-93
2023/12/01 10:49:23;;;;;;;32.88;21.15;;;1.00;99.90;;;;;;4936025;29;20417;-92
2023/12/01 10:51:52;;;;;;;30.80;20.85;;;1.50;99.90;;;;;;4953408;28;20901;-91
2023/12/01 10:54:23;;;;;;;31.02;19.92;;;1.60;99.90;;;;;;4952014;28;20443;-92
2023/12/01 10:56:55;;;;;;;31.27;19.95;;;1.60;99.90;;;;;;4941664;29;20418;-92
2023/12/01 10:59:24;;;;;;;32.30;19.80;;;1.60;99.90;;;;;;4934172;29;20433;-92
2023/12/01 11:01:52;;;;;;;34.08;21.25;;;1.00;99.90;;;;;;4951530;29;20450;-92
2023/12/01 11:04:26;;;;;;;34.55;20.98;;;1.00;99.90;;;;;;4934545;29;20444;-92
2023/12/01 11:07:23;;;;;;;31.83;20.37;;;0.70;99.90;;;;;;4934724;29;20413;-91
2023/12/01 11:10:09;;;;;;;34.67;21.95;;;0.80;99.90;;;;;;4935549;29;20545;-90
2023/12/01 11:12:58;;;;;;;33.25;21.25;;;0.70;99.90;;;;;;4934707;29;20440;-90
2023/12/01 11:15:27;;;;;;;29.80;19.30;;;0.90;99.90;;;;;;4934457;29;20425;-91
2023/12/01 11:17:54;;;;;;;30.17;20.05;;;1.30;99.90;;;;;;4935569;29;20797;-90
2023/12/01 11:20:29;;;;;;;29.73;19.43;;;1.50;99.90;;;;;;4934320;29;20435;-92
2023/12/01 11:23:05;;;;;;;29.43;19.67;;;1.60;99.90;;;;;;4935673;29;20532;-90
2023/12/01 11:25:42;;;;;;;29.90;19.63;;;1.70;99.90;;;;;;4934027;29;20833;-90
2023/12/01 11:28:25;;;;;;;32.55;20.42;;;1.50;99.90;;;;;;4934839;29;20933;-92
2023/12/01 11:31:03;;;;;;;29.20;19.53;;;1.40;99.90;;;;;;4934836;29;20980;-91
2023/12/01 11:33:33;;;;;;;31.52;20.10;;;1.20;99.90;;;;;;4949486;29;20513;-90
2023/12/01 11:36:26;;;;;;;31.25;20.45;;;1.20;99.90;;;;;;4935371;29;20468;-90
2023/12/01 11:39:16;;;;;;;29.40;20.05;;;1.10;99.90;;;;;;4934256;29;20429;-90
2023/12/01 11:41:41;;;;;;;29.05;18.88;;;1.30;99.90;;;;;;4933722;29;20553;-90
2023/12/01 11:44:16;;;;;;;29.67;20.10;;;1.60;99.90;;;;;;4954963;28;20522;-90
2023/12/01 11:46:43;;;;;;;28.48;19.15;;;1.70;99.90;;;;;;4952396;28;20929;-90
2023/12/01 11:49:09;;;;;;;29.88;20.52;;;1.60;99.90;;;;;;4954268;28;20718;-90
2023/12/01 11:51:35;;;;;;;30.15;20.30;;;1.50;99.90;;;;;;4968701;28;20427;-89
2023/12/01 11:54:02;;;;;;;30.67;20.35;;;1.70;99.90;;;;;;4969829;28;20404;-90
2023/12/01 11:56:29;;;;;;;29.40;20.02;;;2.10;99.90;;;;;;4953146;28;20818;-90
2023/12/01 11:58:56;;;;;;;31.47;21.03;;;2.50;99.90;;;;;;4952836;28;20417;-91
2023/12/01 12:01:22;;;;;;;27.30;19.20;;;3.00;99.90;;;;;;4953351;28;20411;-91
2023/12/01 12:03:58;;;;;;;29.17;20.40;;;3.50;99.90;;;;;;4952245;28;20436;-88
2023/12/01 12:06:25;;;;;;;29.65;20.67;;;3.80;99.90;;;;;;4953734;28;20424;-90
2023/12/01 12:08:51;;;;;;;34.28;22.88;;;3.40;99.90;;;;;;4952544;28;20459;-89
2023/12/01 12:11:18;;;;;;;33.00;21.80;;;2.80;99.90;;;;;;4947667;28;20475;-89
2023/12/01 12:13:53;;;;;;;34.58;22.65;;;2.20;99.90;;;;;;4933293;29;20748;-90
2023/12/01 12:16:20;;;;;;;35.83;22.30;;;1.80;99.90;;;;;;4932818;29;20500;-89
2023/12/01 12:18:48;;;;;;;32.13;21.63;;;1.50;99.90;;;;;;4933514;29;20410;-90
2023/12/01 12:21:14;;;;;;;36.42;22.80;;;1.40;99.90;;;;;;4932261;29;20901;-89
2023/12/01 12:23:40;;;;;;;33.83;22.35;;;1.30;99.90;;;;;;4933482;29;20434;-89
2023/12/01 12:26:20;;;;;;;37.22;22.80;;;1.20;99.90;;;;;;4950672;28;20415;-89
2023/12/01 12:28:54;;;;;;;37.22;23.27;;;1.00;99.90;;;;;;4952336;28;20479;-89
2023/12/01 12:31:23;;;;;;;32.50;21.90;;;1.00;99.90;;;;;;4952870;28;20441;-89